createdAt,value
2022-12-03T00:00:10.473Z,66.90
2022-12-03T00:02:40.796Z,66.79
2022-12-03T00:05:08.063Z,67.83
2022-12-03T00:07:34.573Z,67.40
2022-12-03T00:10:01.105Z,66.66
2022-12-03T00:12:27.899Z,67.69
2022-12-03T00:14:54.631Z,66.70
2022-12-03T00:17:21.290Z,66.86
2022-12-03T00:19:49.121Z,67.24
2022-12-03T00:22:15.604Z,66.54
2022-12-03T00:24:42.110Z,66.78
2022-12-03T00:27:08.573Z,67.72
2022-12-03T00:29:35.075Z,67.62
2022-12-03T00:32:01.573Z,67.69
2022-12-03T00:34:28.273Z,67.56
2022-12-03T00:36:56.126Z,67.83
2022-12-03T00:39:23.025Z,67.95
2022-12-03T00:41:49.513Z,66.13
2022-12-03T00:44:16.051Z,67.07
2022-12-03T00:46:42.768Z,67.03
2022-12-03T00:49:09.468Z,67.84
2022-12-03T00:51:35.955Z,66.70
2022-12-03T00:54:04.008Z,67.06
2022-12-03T00:56:30.472Z,66.97
2022-12-03T00:58:57.074Z,66.55
2022-12-03T01:01:23.621Z,66.61
2022-12-03T01:03:50.348Z,67.98
2022-12-03T01:06:16.976Z,68.08
2022-12-03T01:08:43.449Z,68.39
2022-12-03T01:11:11.332Z,68.56
2022-12-03T01:13:37.935Z,68.23
2022-12-03T01:16:05.023Z,68.65
2022-12-03T01:18:31.646Z,68.69
2022-12-03T01:20:58.137Z,68.50
2022-12-03T01:23:24.585Z,68.30
2022-12-03T01:25:51.203Z,68.36
2022-12-03T01:28:19.032Z,67.98
2022-12-03T01:30:45.792Z,67.71
2022-12-03T01:33:12.413Z,67.80
2022-12-03T01:35:39.050Z,67.57
2022-12-03T01:38:05.482Z,68.46
2022-12-03T01:40:32.340Z,66.85
2022-12-03T01:42:58.907Z,66.85
2022-12-03T01:45:26.811Z,67.37
2022-12-03T01:47:53.347Z,67.35
2022-12-03T01:50:27.147Z,68.40
2022-12-03T01:52:57.929Z,67.30
2022-12-03T01:55:25.953Z,67.05
2022-12-03T01:57:54.805Z,66.82
2022-12-03T02:00:24.335Z,67.66
2022-12-03T02:02:55.287Z,67.03
2022-12-03T02:05:24.810Z,67.04
2022-12-03T02:07:51.683Z,68.17
2022-12-03T02:10:23.665Z,68.13
2022-12-03T02:12:54.444Z,67.72
2022-12-03T02:15:21.228Z,68.83
2022-12-03T02:17:47.917Z,67.54
2022-12-03T02:20:16.200Z,68.40
2022-12-03T02:22:48.480Z,67.76
2022-12-03T02:25:19.272Z,68.14
2022-12-03T02:27:46.994Z,68.04
2022-12-03T02:30:15.920Z,68.52
2022-12-03T02:32:42.608Z,68.07
2022-12-03T02:35:13.944Z,67.77
2022-12-03T02:37:41.527Z,66.76
2022-12-03T02:40:11.805Z,67.29
2022-12-03T02:42:42.499Z,68.22
2022-12-03T02:45:13.712Z,67.42
2022-12-03T02:47:43.495Z,67.62
2022-12-03T02:50:12.792Z,67.01
2022-12-03T02:52:40.537Z,68.55
2022-12-03T02:55:08.873Z,68.96
2022-12-03T02:57:37.174Z,68.06
2022-12-03T03:00:07.145Z,68.40
2022-12-03T03:02:34.082Z,70.01
2022-12-03T03:05:01.967Z,71.06
2022-12-03T03:07:28.813Z,70.84
2022-12-03T03:09:55.726Z,69.63
2022-12-03T03:12:22.276Z,69.63
2022-12-03T03:14:48.793Z,70.24
2022-12-03T03:17:17.049Z,70.65
2022-12-03T03:19:43.539Z,70.49
2022-12-03T03:22:10.588Z,70.42
2022-12-03T03:24:37.929Z,70.49
2022-12-03T03:27:05.053Z,70.08
2022-12-03T03:29:33.150Z,70.63
2022-12-03T03:32:01.078Z,69.67
2022-12-03T03:34:32.536Z,69.02
2022-12-03T03:36:59.096Z,69.39
2022-12-03T03:39:25.637Z,68.90
2022-12-03T03:41:52.553Z,69.86
2022-12-03T03:44:19.091Z,70.12
2022-12-03T03:46:45.677Z,68.80
2022-12-03T03:49:13.031Z,69.78
2022-12-03T03:51:41.401Z,70.03
2022-12-03T03:54:08.352Z,68.65
2022-12-03T03:56:35.545Z,69.57
2022-12-03T03:59:02.803Z,69.54
2022-12-03T04:01:30.163Z,68.82
2022-12-03T04:03:56.845Z,69.21
2022-12-03T04:06:23.416Z,69.40
2022-12-03T04:08:51.525Z,69.14
2022-12-03T04:11:18.073Z,68.89
2022-12-03T04:13:44.984Z,69.15
2022-12-03T04:16:11.453Z,69.59
2022-12-03T04:18:38.282Z,69.20
2022-12-03T04:21:04.909Z,68.58
2022-12-03T04:23:31.426Z,69.12
2022-12-03T04:25:59.250Z,69.15
2022-12-03T04:28:25.955Z,69.22
2022-12-03T04:30:53.061Z,69.32
2022-12-03T04:33:19.573Z,69.02
2022-12-03T04:35:46.494Z,68.72
2022-12-03T04:38:25.261Z,69.30
2022-12-03T04:40:51.733Z,69.57
2022-12-03T04:43:19.623Z,68.18
2022-12-03T04:45:46.138Z,69.56
2022-12-03T04:48:14.753Z,69.21
2022-12-03T04:51:31.586Z,69.04
2022-12-03T04:54:08.577Z,70.23
2022-12-03T04:56:35.130Z,68.91
2022-12-03T04:59:03.233Z,68.02
2022-12-03T05:01:46.659Z,68.05
2022-12-03T05:04:14.290Z,67.82
2022-12-03T05:06:41.277Z,67.30
2022-12-03T05:09:07.799Z,67.97
2022-12-03T05:11:35.044Z,68.49
2022-12-03T05:14:02.979Z,67.78
2022-12-03T05:16:29.654Z,67.37
2022-12-03T05:18:56.202Z,68.03
2022-12-03T05:21:22.873Z,68.01
2022-12-03T05:23:49.674Z,67.43
2022-12-03T05:26:16.522Z,68.21
2022-12-03T05:28:43.040Z,68.12
2022-12-03T05:31:11.080Z,67.10
2022-12-03T05:33:42.569Z,67.92
2022-12-03T05:36:10.891Z,67.52
2022-12-03T05:38:37.371Z,67.53
2022-12-03T05:41:03.919Z,66.99
2022-12-03T05:43:30.464Z,66.64
2022-12-03T05:45:57.021Z,67.70
2022-12-03T05:48:24.918Z,66.77
2022-12-03T05:50:51.391Z,67.55
2022-12-03T05:53:18.408Z,66.71
2022-12-03T05:55:45.125Z,66.47
2022-12-03T05:58:11.566Z,67.92
2022-12-03T06:00:42.441Z,67.06
2022-12-03T06:03:10.323Z,66.43
2022-12-03T06:05:38.639Z,66.78
2022-12-03T06:08:05.338Z,67.69
2022-12-03T06:10:31.902Z,68.16
2022-12-03T06:12:58.613Z,67.26
2022-12-03T06:15:25.104Z,67.26
2022-12-03T06:17:51.808Z,67.34
2022-12-03T06:20:19.894Z,67.98
2022-12-03T06:22:47.982Z,68.42
2022-12-03T06:25:15.398Z,67.85
2022-12-03T06:27:42.686Z,68.07
2022-12-03T06:30:12.292Z,68.91
2022-12-03T06:32:38.957Z,68.73
2022-12-03T06:35:05.885Z,68.17
2022-12-03T06:37:32.345Z,67.12
2022-12-03T06:40:00.255Z,66.70
2022-12-03T06:42:26.764Z,67.22
2022-12-03T06:44:54.141Z,67.12
2022-12-03T06:47:20.873Z,66.16
2022-12-03T06:49:47.468Z,65.32
2022-12-03T06:52:13.899Z,65.96
2022-12-03T06:54:40.583Z,66.59
2022-12-03T06:57:08.405Z,67.39
2022-12-03T06:59:35.012Z,67.57
2022-12-03T07:02:01.557Z,68.50
2022-12-03T07:04:28.104Z,67.87
2022-12-03T07:06:54.986Z,67.46
2022-12-03T07:09:21.442Z,66.68
2022-12-03T07:11:47.925Z,67.66
2022-12-03T07:14:15.783Z,67.07
2022-12-03T07:16:42.334Z,67.79
2022-12-03T07:19:09.306Z,68.03
2022-12-03T07:21:35.834Z,67.77
2022-12-03T07:24:02.287Z,68.60
2022-12-03T07:26:28.895Z,68.27
2022-12-03T07:28:55.406Z,68.00
2022-12-03T07:31:23.345Z,67.88
2022-12-03T07:33:49.896Z,68.56
2022-12-03T07:36:16.384Z,67.61
2022-12-03T07:38:42.932Z,67.10
2022-12-03T07:41:09.585Z,68.51
2022-12-03T07:43:36.056Z,67.55
2022-12-03T07:46:02.734Z,67.29
2022-12-03T07:48:30.574Z,66.62
2022-12-03T07:50:57.089Z,67.31
2022-12-03T07:53:23.598Z,66.56
2022-12-03T07:55:50.083Z,65.90
2022-12-03T07:58:16.581Z,65.76
2022-12-03T08:00:43.141Z,66.34
2022-12-03T08:03:09.691Z,65.24
2022-12-03T08:05:37.685Z,64.54
2022-12-03T08:08:04.480Z,63.96
2022-12-03T08:10:31.228Z,65.11
2022-12-03T08:12:59.371Z,63.69
2022-12-03T08:15:30.194Z,64.79
2022-12-03T08:18:01.050Z,65.66
2022-12-03T08:20:31.329Z,64.87
2022-12-03T08:22:59.329Z,63.57
2022-12-03T08:25:27.960Z,64.20
2022-12-03T08:28:00.121Z,65.57
2022-12-03T08:30:26.619Z,66.61
2022-12-03T08:32:53.750Z,65.96
2022-12-03T08:35:23.104Z,66.06
2022-12-03T08:37:56.878Z,66.50
2022-12-03T08:40:32.850Z,67.04
2022-12-03T08:42:59.333Z,64.90
2022-12-03T08:45:35.160Z,65.49
2022-12-03T08:48:05.745Z,65.08
2022-12-03T08:50:36.002Z,64.11
2022-12-03T08:53:23.307Z,62.97
2022-12-03T08:55:54.685Z,63.29
2022-12-03T08:58:23.209Z,63.95
2022-12-03T09:00:53.974Z,64.95
2022-12-03T09:03:20.505Z,63.01
2022-12-03T09:05:46.982Z,63.35
2022-12-03T09:08:13.546Z,62.88
2022-12-03T09:10:40.079Z,62.16
2022-12-03T09:13:08.110Z,61.48
2022-12-03T09:15:34.603Z,60.80
2022-12-03T09:18:01.427Z,61.78
2022-12-03T09:20:27.957Z,61.21
2022-12-03T09:22:54.630Z,60.63
2022-12-03T09:25:21.117Z,61.34
2022-12-03T09:27:47.620Z,60.31
2022-12-03T09:30:16.195Z,59.91
2022-12-03T09:32:42.677Z,59.01
2022-12-03T09:35:11.913Z,60.13
2022-12-03T09:37:38.546Z,60.41
2022-12-03T09:40:06.469Z,60.56
2022-12-03T09:42:33.479Z,59.29
2022-12-03T09:45:01.636Z,59.21
2022-12-03T09:47:39.077Z,59.75
2022-12-03T09:50:06.817Z,59.51
2022-12-03T09:52:34.528Z,60.12
2022-12-03T09:55:05.933Z,60.87
2022-12-03T09:57:32.442Z,61.42
2022-12-03T09:59:59.327Z,62.65
2022-12-03T10:02:29.477Z,62.90
2022-12-03T10:04:58.859Z,63.71
2022-12-03T10:07:26.168Z,63.46
2022-12-03T10:09:53.290Z,62.79
2022-12-03T10:12:23.416Z,63.27
2022-12-03T10:14:50.709Z,63.42
2022-12-03T10:17:17.709Z,63.89
2022-12-03T10:19:44.485Z,64.74
2022-12-03T10:22:12.311Z,64.40
2022-12-03T10:24:41.251Z,65.02
2022-12-03T10:27:24.755Z,63.74
2022-12-03T10:29:56.109Z,63.51
2022-12-03T10:32:25.632Z,64.66
2022-12-03T10:35:07.676Z,63.46
2022-12-03T10:37:35.672Z,63.32
2022-12-03T10:40:05.450Z,63.49
2022-12-03T10:42:33.518Z,63.70
2022-12-03T10:45:09.205Z,63.64
2022-12-03T10:47:35.835Z,63.87
2022-12-03T10:50:05.521Z,62.73
2022-12-03T10:52:32.504Z,61.50
2022-12-03T10:55:00.617Z,62.58
2022-12-03T10:57:27.128Z,61.60
2022-12-03T10:59:53.625Z,60.92
2022-12-03T11:02:24.176Z,60.52
2022-12-03T11:04:52.007Z,58.83
2022-12-03T11:07:21.037Z,58.72
2022-12-03T11:09:49.786Z,58.84
2022-12-03T11:12:21.640Z,58.45
2022-12-03T11:15:01.944Z,58.93
2022-12-03T11:17:43.606Z,59.99
2022-12-03T11:20:15.775Z,58.43
2022-12-03T11:22:47.786Z,58.28
2022-12-03T11:25:48.090Z,58.96
2022-12-03T11:28:36.816Z,59.35
2022-12-03T11:31:06.627Z,60.17
2022-12-03T11:33:34.936Z,58.56
2022-12-03T11:36:17.548Z,58.83
2022-12-03T11:38:52.928Z,59.90
2022-12-03T11:41:23.453Z,59.56
2022-12-03T11:44:25.804Z,58.79
2022-12-03T11:46:53.490Z,60.11
2022-12-03T11:49:30.110Z,59.76
2022-12-03T11:51:57.197Z,60.29
2022-12-03T11:54:24.354Z,60.30
2022-12-03T11:56:52.931Z,60.93
2022-12-03T11:59:20.755Z,60.94
2022-12-03T12:01:47.510Z,60.02
2022-12-03T12:04:30.091Z,60.19
2022-12-03T12:06:56.753Z,59.22
2022-12-03T12:09:48.315Z,59.25
2022-12-03T12:12:19.057Z,59.67
2022-12-03T12:14:47.234Z,59.75
2022-12-03T12:17:30.471Z,58.87
2022-12-03T12:20:12.785Z,59.48
2022-12-03T12:22:39.323Z,60.41
2022-12-03T12:25:36.460Z,59.64
2022-12-03T12:28:03.120Z,60.49
2022-12-03T12:30:31.133Z,60.19
2022-12-03T12:33:11.050Z,58.66
2022-12-03T12:35:37.891Z,58.60
2022-12-03T12:38:14.307Z,57.88
2022-12-03T12:40:42.922Z,58.20
2022-12-03T12:43:24.169Z,59.71
2022-12-03T12:45:53.635Z,59.88
2022-12-03T12:48:25.890Z,60.20
2022-12-03T12:50:58.782Z,59.09
2022-12-03T12:53:27.404Z,59.89
2022-12-03T12:55:56.733Z,61.30
2022-12-03T12:58:23.500Z,61.12
2022-12-03T13:00:53.724Z,61.42
2022-12-03T13:03:23.145Z,60.47
2022-12-03T13:05:51.413Z,60.27
2022-12-03T13:08:22.568Z,60.81
2022-12-03T13:10:50.532Z,60.79
2022-12-03T13:13:43.614Z,61.80
2022-12-03T13:16:18.795Z,61.26
2022-12-03T13:18:47.170Z,61.07
2022-12-03T13:21:20.840Z,61.60
2022-12-03T13:23:47.819Z,60.55
2022-12-03T13:26:32.781Z,61.97
2022-12-03T13:29:10.823Z,61.09
2022-12-03T13:31:48.445Z,60.68
2022-12-03T13:34:19.944Z,60.62
2022-12-03T13:36:51.962Z,62.43
2022-12-03T13:39:27.249Z,62.68
2022-12-03T13:41:55.062Z,62.08
2022-12-03T13:44:21.559Z,60.55
2022-12-03T13:46:49.778Z,61.60
2022-12-03T13:49:19.954Z,61.39
2022-12-03T13:51:46.914Z,61.28
2022-12-03T13:54:20.176Z,62.51
2022-12-03T13:56:46.984Z,61.42
2022-12-03T13:59:13.655Z,61.13
2022-12-03T14:01:43.419Z,60.83
2022-12-03T14:04:12.111Z,61.65
2022-12-03T14:06:38.739Z,62.29
2022-12-03T14:09:05.458Z,62.35
2022-12-03T14:11:32.101Z,61.64
2022-12-03T14:13:58.766Z,61.95
2022-12-03T14:16:25.429Z,62.12
2022-12-03T14:18:52.166Z,61.95
2022-12-03T14:21:20.185Z,62.84
2022-12-03T14:23:46.665Z,61.69
2022-12-03T14:26:13.278Z,61.47
2022-12-03T14:28:39.752Z,62.67
2022-12-03T14:31:06.477Z,61.95
2022-12-03T14:33:33.061Z,62.69
2022-12-03T14:35:59.519Z,63.03
2022-12-03T14:38:27.596Z,63.27
2022-12-03T14:40:54.207Z,63.16
2022-12-03T14:43:20.657Z,62.21
2022-12-03T14:45:47.217Z,62.99
2022-12-03T14:48:13.865Z,62.80
2022-12-03T14:50:40.412Z,63.80
2022-12-03T14:53:06.961Z,64.09
2022-12-03T14:55:36.495Z,64.14
2022-12-03T14:58:02.988Z,64.19
2022-12-03T15:00:29.620Z,63.47
2022-12-03T15:02:58.147Z,63.69
2022-12-03T15:05:28.995Z,64.11
2022-12-03T15:07:56.259Z,63.78
2022-12-03T15:10:23.101Z,63.21
2022-12-03T15:12:51.092Z,63.70
2022-12-03T15:15:17.596Z,63.75
2022-12-03T15:17:44.077Z,64.68
2022-12-03T15:20:11.948Z,63.51
2022-12-03T15:22:38.409Z,63.33
2022-12-03T15:25:05.686Z,63.96
2022-12-03T15:27:32.333Z,63.45
2022-12-03T15:30:00.364Z,63.83
2022-12-03T15:32:26.898Z,64.50
2022-12-03T15:34:53.768Z,65.55
2022-12-03T15:37:20.264Z,64.66
2022-12-03T15:39:48.897Z,65.22
2022-12-03T15:42:15.668Z,64.88
2022-12-03T15:44:42.179Z,64.19
2022-12-03T15:47:10.197Z,63.89
2022-12-03T15:49:36.737Z,64.07
2022-12-03T15:52:03.380Z,63.85
2022-12-03T15:54:29.915Z,65.45
2022-12-03T15:56:57.631Z,64.11
2022-12-03T15:59:24.360Z,64.82
2022-12-03T16:01:51.025Z,64.65
2022-12-03T16:04:19.188Z,65.05
2022-12-03T16:06:45.725Z,64.46
2022-12-03T16:09:12.397Z,65.60
2022-12-03T16:11:38.869Z,65.91
2022-12-03T16:14:05.641Z,66.41
2022-12-03T16:16:32.163Z,66.21
2022-12-03T16:18:58.633Z,66.19
2022-12-03T16:21:27.477Z,66.30
2022-12-03T16:23:54.321Z,65.25
2022-12-03T16:26:20.990Z,64.90
2022-12-03T16:28:47.503Z,64.82
2022-12-03T16:31:14.133Z,66.00
2022-12-03T16:33:40.683Z,65.79
2022-12-03T16:36:07.972Z,65.84
2022-12-03T16:38:35.836Z,65.06
2022-12-03T16:41:02.352Z,65.37
2022-12-03T16:43:29.036Z,65.69
2022-12-03T16:45:55.568Z,66.16
2022-12-03T16:48:22.880Z,66.10
2022-12-03T16:50:49.317Z,66.91
2022-12-03T16:53:15.858Z,66.19
2022-12-03T16:55:46.571Z,65.56
2022-12-03T16:58:14.738Z,66.07
2022-12-03T17:00:41.255Z,66.65
2022-12-03T17:03:07.795Z,66.22
2022-12-03T17:05:34.645Z,66.34
2022-12-03T17:08:01.170Z,66.25
2022-12-03T17:10:27.724Z,66.27
2022-12-03T17:13:11.520Z,66.56
2022-12-03T17:15:38.663Z,67.35
2022-12-03T17:18:06.201Z,66.72
2022-12-03T17:20:33.218Z,65.99
2022-12-03T17:23:00.335Z,65.92
2022-12-03T17:25:27.519Z,66.35
2022-12-03T17:27:55.381Z,66.86
2022-12-03T17:30:21.919Z,66.69
2022-12-03T17:32:48.401Z,66.61
2022-12-03T17:35:14.898Z,67.50
2022-12-03T17:37:41.401Z,67.46
2022-12-03T17:40:10.670Z,67.62
2022-12-03T17:46:31.241Z,66.14
2022-12-03T17:50:18.990Z,66.74
2022-12-03T17:52:45.581Z,67.00
2022-12-03T17:55:24.979Z,66.28
2022-12-03T17:57:57.961Z,67.50
2022-12-03T18:00:24.432Z,67.23
2022-12-03T18:02:52.375Z,65.54
2022-12-03T18:05:43.362Z,65.93
2022-12-03T18:08:53.773Z,66.44
2022-12-03T18:11:25.764Z,67.60
2022-12-03T18:13:52.593Z,66.75
2022-12-03T18:16:19.174Z,66.57
2022-12-03T18:19:06.186Z,65.76
2022-12-03T18:21:33.586Z,67.04
2022-12-03T18:24:00.203Z,66.76
2022-12-03T18:26:26.704Z,65.91
2022-12-03T18:29:15.451Z,66.36
2022-12-03T18:31:59.146Z,65.48
2022-12-03T18:34:42.255Z,65.76
2022-12-03T18:37:27.399Z,65.25
2022-12-03T18:40:20.013Z,65.39
2022-12-03T18:43:37.551Z,64.46
2022-12-03T18:46:31.248Z,65.00
2022-12-03T18:49:28.696Z,64.96
2022-12-03T18:52:00.132Z,66.11
2022-12-03T18:54:26.940Z,65.89
2022-12-03T18:56:53.416Z,66.88
2022-12-03T19:03:04.110Z,66.06
2022-12-03T19:05:19.815Z,67.29
2022-12-03T19:07:47.895Z,67.34
2022-12-03T19:10:32.769Z,66.21
2022-12-03T19:13:02.547Z,66.83
2022-12-03T19:15:42.152Z,66.55
2022-12-03T19:18:08.893Z,65.77
2022-12-03T19:20:53.920Z,66.67
2022-12-03T19:23:22.714Z,67.02
2022-12-03T19:25:57.112Z,67.29
2022-12-03T19:28:26.140Z,67.43
2022-12-03T19:30:59.136Z,67.46
2022-12-03T19:33:32.987Z,67.41
2022-12-03T19:36:00.774Z,67.21
2022-12-03T19:38:30.227Z,67.41
2022-12-03T19:41:20.009Z,67.64
2022-12-03T19:44:20.739Z,67.16
2022-12-03T19:47:14.528Z,67.35
2022-12-03T19:49:41.071Z,68.39
2022-12-03T19:52:07.678Z,68.17
2022-12-03T19:54:35.836Z,66.90
2022-12-03T19:57:02.393Z,67.05
2022-12-03T19:59:28.842Z,67.69
2022-12-03T20:02:56.627Z,66.49
2022-12-03T20:05:23.246Z,66.63
2022-12-03T20:07:49.788Z,66.23
2022-12-03T20:10:17.916Z,66.95
2022-12-03T20:12:44.466Z,67.20
2022-12-03T20:15:12.509Z,67.27
2022-12-03T20:17:55.409Z,68.16
2022-12-03T20:20:22.522Z,67.73
2022-12-03T20:23:17.802Z,67.46
2022-12-03T20:25:49.620Z,67.67
2022-12-03T20:28:16.125Z,67.57
2022-12-03T20:30:56.965Z,67.52
2022-12-03T20:36:51.793Z,67.53
2022-12-03T20:39:18.375Z,67.04
2022-12-03T20:42:02.333Z,66.69
2022-12-03T20:44:28.906Z,67.96
2022-12-03T20:47:10.103Z,67.79
2022-12-03T20:53:39.641Z,67.54
2022-12-03T20:56:17.927Z,67.75
2022-12-03T20:59:01.607Z,66.67
2022-12-03T21:01:36.591Z,66.15
2022-12-03T21:04:10.319Z,66.77
2022-12-03T21:06:45.461Z,67.22
2022-12-03T21:09:22.595Z,66.86
2022-12-03T21:12:18.714Z,67.13
2022-12-03T21:14:47.697Z,66.89
2022-12-03T21:17:33.122Z,66.95
2022-12-03T21:19:59.802Z,67.24
2022-12-03T21:22:38.372Z,66.89
2022-12-03T21:25:05.769Z,66.41
2022-12-03T21:27:32.444Z,65.69
2022-12-03T21:30:00.270Z,65.46
2022-12-03T21:32:26.903Z,65.99
2022-12-03T21:34:53.370Z,66.78
2022-12-03T21:37:19.829Z,65.79
2022-12-03T21:39:46.365Z,66.20
2022-12-03T21:42:25.971Z,66.87
2022-12-03T21:45:00.698Z,66.59
2022-12-03T21:47:29.907Z,66.84
2022-12-03T21:50:00.372Z,66.88
2022-12-03T21:52:29.940Z,66.23
2022-12-03T21:55:04.680Z,67.17
2022-12-03T21:57:35.287Z,67.04
2022-12-03T22:00:04.816Z,66.45
2022-12-03T22:02:31.419Z,68.25
2022-12-03T22:04:58.037Z,68.16
2022-12-03T22:07:24.854Z,67.84
2022-12-03T22:09:51.352Z,67.37
2022-12-03T22:12:17.844Z,67.24
2022-12-03T22:14:44.321Z,68.06
2022-12-03T22:17:12.300Z,66.94
2022-12-03T22:19:38.814Z,67.69
2022-12-03T22:22:05.364Z,66.85
2022-12-03T22:24:31.891Z,67.13
2022-12-03T22:26:58.637Z,66.87
2022-12-03T22:29:25.093Z,67.54
2022-12-03T22:31:51.603Z,68.70
2022-12-03T22:34:19.528Z,68.75
2022-12-03T22:36:46.031Z,68.18
2022-12-03T22:39:12.554Z,67.48
2022-12-03T22:41:39.224Z,66.25
2022-12-03T22:44:05.866Z,66.94
2022-12-03T22:46:32.833Z,66.49
2022-12-03T22:49:06.458Z,66.97
2022-12-03T22:51:35.369Z,67.11
2022-12-03T22:54:02.021Z,67.96
2022-12-03T22:56:29.977Z,67.49
2022-12-03T22:58:56.453Z,68.03
2022-12-03T23:01:25.715Z,67.46
2022-12-03T23:03:52.394Z,67.69
2022-12-03T23:06:19.744Z,66.07
2022-12-03T23:08:47.821Z,67.62
2022-12-03T23:11:17.152Z,67.97
2022-12-03T23:13:43.653Z,68.27
2022-12-03T23:16:15.087Z,69.12
2022-12-03T23:18:41.871Z,68.52
2022-12-03T23:21:08.755Z,67.91
2022-12-03T23:23:35.221Z,67.66
2022-12-03T23:26:06.255Z,67.70
2022-12-03T23:28:34.389Z,67.28
2022-12-03T23:31:01.223Z,67.98
2022-12-03T23:33:28.490Z,67.73
2022-12-03T23:35:55.305Z,67.22
2022-12-03T23:38:22.014Z,67.26
2022-12-03T23:40:48.747Z,67.40
2022-12-03T23:43:16.574Z,66.99
2022-12-03T23:45:43.592Z,67.11
2022-12-03T23:48:10.111Z,67.44
2022-12-03T23:50:39.173Z,68.77
2022-12-03T23:53:05.635Z,68.07
2022-12-03T23:55:32.244Z,67.21
2022-12-03T23:57:58.861Z,67.34
